createdAt,value
2018-09-06T00:01:58.550Z,22.50
2018-09-06T00:06:39.459Z,22.17
2018-09-06T00:11:19.207Z,22.37
2018-09-06T00:15:59.044Z,21.90
2018-09-06T00:20:40.189Z,22.67
2018-09-06T00:25:20.252Z,22.48
2018-09-06T00:30:00.990Z,21.65
2018-09-06T00:34:40.652Z,23.25
2018-09-06T00:39:20.647Z,21.70
2018-09-06T00:44:01.297Z,21.73
2018-09-06T00:48:42.322Z,24.00
2018-09-06T00:53:24.140Z,22.70
2018-09-06T00:58:04.900Z,22.98
2018-09-06T01:02:45.228Z,20.68
2018-09-06T01:07:25.604Z,22.05
2018-09-06T01:12:05.555Z,21.62
2018-09-06T01:16:45.447Z,22.20
2018-09-06T01:21:25.944Z,23.22
2018-09-06T01:26:07.061Z,22.77
2018-09-06T01:30:48.129Z,22.22
2018-09-06T01:35:27.897Z,22.58
2018-09-06T01:40:08.277Z,21.07
2018-09-06T01:44:48.760Z,22.10
2018-09-06T01:49:28.952Z,22.82
2018-09-06T01:54:09.888Z,22.62
2018-09-06T01:58:50.257Z,22.50
2018-09-06T02:03:30.991Z,20.92
2018-09-06T02:08:10.763Z,20.62
2018-09-06T02:12:50.505Z,21.20
2018-09-06T02:17:31.080Z,20.65
2018-09-06T02:22:10.907Z,20.00
2018-09-06T02:26:51.008Z,20.40
2018-09-06T02:31:31.539Z,20.88
2018-09-06T02:36:11.624Z,20.95
2018-09-06T02:40:52.052Z,20.62
2018-09-06T02:45:32.354Z,19.55
2018-09-06T02:50:18.090Z,20.10
2018-09-06T02:54:57.839Z,21.57
2018-09-06T02:59:39.063Z,21.20
2018-09-06T03:04:19.129Z,21.35
2018-09-06T03:08:58.900Z,20.65
2018-09-06T03:13:38.973Z,20.57
2018-09-06T03:18:20.512Z,19.95
2018-09-06T03:23:01.568Z,19.90
2018-09-06T03:27:42.369Z,20.50
2018-09-06T03:32:23.242Z,20.15
2018-09-06T03:37:05.220Z,20.25
2018-09-06T03:41:45.016Z,20.55
2018-09-06T03:46:25.012Z,20.85
2018-09-06T03:51:05.131Z,19.95
2018-09-06T03:55:45.050Z,20.10
2018-09-06T04:00:25.035Z,21.65
2018-09-06T04:05:06.092Z,19.98
2018-09-06T04:09:47.015Z,20.10
2018-09-06T04:14:28.218Z,21.25
2018-09-06T04:19:08.428Z,21.55
2018-09-06T04:23:49.203Z,21.75
2018-09-06T04:28:29.835Z,21.25
2018-09-06T04:33:11.208Z,21.70
2018-09-06T04:37:51.731Z,20.60
2018-09-06T04:42:32.748Z,21.85
2018-09-06T04:47:12.452Z,21.35
2018-09-06T04:51:52.452Z,22.32
2018-09-06T04:56:32.857Z,22.52
2018-09-06T05:01:13.883Z,21.80
2018-09-06T05:05:54.439Z,22.32
2018-09-06T05:10:34.463Z,20.65
2018-09-06T05:15:15.072Z,22.87
2018-09-06T05:19:54.969Z,20.05
2018-09-06T05:24:34.712Z,22.25
2018-09-06T05:29:14.304Z,20.17
2018-09-06T05:33:54.283Z,20.23
2018-09-06T05:38:35.329Z,19.15
2018-09-06T05:43:17.044Z,18.62
2018-09-06T05:47:58.409Z,19.65
2018-09-06T05:52:39.572Z,17.57
2018-09-06T05:57:19.415Z,18.05
2018-09-06T06:02:00.320Z,18.90
2018-09-06T06:06:40.796Z,17.70
2018-09-06T06:11:21.828Z,19.73
2018-09-06T06:16:02.458Z,19.45
2018-09-06T06:20:42.545Z,19.40
2018-09-06T06:25:22.576Z,19.10
2018-09-06T06:30:02.668Z,18.87
2018-09-06T06:34:43.036Z,18.60
2018-09-06T06:39:23.824Z,18.05
2018-09-06T06:44:03.752Z,18.67
2018-09-06T06:48:44.798Z,18.17
2018-09-06T06:53:25.269Z,18.35
2018-09-06T06:58:05.332Z,17.80
2018-09-06T07:02:46.527Z,18.45
2018-09-06T07:07:26.324Z,18.67
2018-09-06T07:12:07.878Z,19.32
2018-09-06T07:16:47.734Z,19.12
2018-09-06T07:21:28.807Z,20.72
2018-09-06T07:26:10.287Z,22.22
2018-09-06T07:30:50.641Z,20.40
2018-09-06T07:35:31.652Z,21.20
2018-09-06T07:40:11.676Z,19.23
2018-09-06T07:44:51.855Z,18.02
2018-09-06T07:49:32.812Z,15.90
2018-09-06T07:54:13.236Z,17.12
2018-09-06T07:58:54.011Z,15.88
2018-09-06T08:03:34.863Z,15.70
2018-09-06T08:08:14.453Z,14.43
2018-09-06T08:12:54.968Z,15.70
2018-09-06T08:17:35.976Z,15.60
2018-09-06T08:22:15.769Z,15.30
2018-09-06T08:26:57.428Z,14.93
2018-09-06T08:31:37.568Z,15.60
2018-09-06T08:36:19.434Z,15.25
2018-09-06T08:40:59.308Z,15.68
2018-09-06T08:45:39.181Z,14.40
2018-09-06T08:50:18.980Z,14.28
2018-09-06T08:54:59.255Z,14.47
2018-09-06T08:59:39.281Z,15.05
2018-09-06T09:04:19.168Z,15.15
2018-09-06T09:08:58.803Z,15.45
2018-09-06T09:13:39.507Z,15.80
2018-09-06T09:18:20.503Z,14.03
2018-09-06T09:23:01.356Z,14.93
2018-09-06T09:27:42.027Z,13.48
2018-09-06T09:32:22.569Z,14.45
2018-09-06T09:37:03.824Z,12.68
2018-09-06T09:41:43.416Z,13.08
2018-09-06T09:51:03.687Z,12.88
2018-09-06T09:55:44.284Z,13.70
2018-09-06T10:00:29.900Z,14.30
2018-09-06T10:05:15.907Z,12.55
2018-09-06T10:09:57.628Z,12.37
2018-09-06T10:14:38.063Z,12.10
2018-09-06T10:19:18.368Z,13.72
2018-09-06T10:23:58.759Z,14.85
2018-09-06T10:28:39.463Z,15.70
2018-09-06T10:33:20.200Z,14.73
2018-09-06T10:38:00.079Z,14.40
2018-09-06T10:42:41.298Z,13.75
2018-09-06T10:47:24.163Z,12.65
2018-09-06T10:52:04.264Z,13.30
2018-09-06T10:56:44.751Z,11.00
2018-09-06T11:01:26.308Z,10.50
2018-09-06T11:06:06.928Z,10.65
2018-09-06T11:10:47.076Z,9.38
2018-09-06T11:15:28.264Z,9.40
2018-09-06T11:20:09.239Z,8.18
2018-09-06T11:24:50.464Z,8.68
2018-09-06T11:29:31.160Z,8.13
2018-09-06T11:34:11.946Z,7.55
2018-09-06T11:38:53.629Z,7.97
2018-09-06T11:43:33.947Z,8.90
2018-09-06T11:48:14.905Z,7.90
2018-09-06T11:52:55.991Z,8.25
2018-09-06T11:57:37.649Z,8.15
2018-09-06T12:02:17.900Z,8.28
2018-09-06T12:07:00.798Z,8.40
2018-09-06T12:11:40.768Z,7.90
2018-09-06T12:16:22.065Z,7.15
2018-09-06T12:21:02.513Z,7.62
2018-09-06T12:25:42.710Z,8.10
2018-09-06T12:30:23.720Z,8.73
2018-09-06T12:35:04.740Z,8.40
2018-09-06T12:39:45.892Z,8.35
2018-09-06T12:44:26.475Z,8.58
2018-09-06T12:49:06.375Z,8.75
2018-09-06T12:53:46.696Z,10.08
2018-09-06T12:58:26.504Z,10.25
2018-09-06T13:03:06.453Z,9.13
2018-09-06T13:07:47.434Z,9.18
2018-09-06T13:12:27.653Z,9.50
2018-09-06T13:17:07.553Z,9.20
2018-09-06T13:21:48.506Z,9.33
2018-09-06T13:26:28.352Z,9.48
2018-09-06T13:31:08.177Z,10.08
2018-09-06T13:35:48.152Z,9.63
2018-09-06T13:40:29.020Z,9.05
2018-09-06T13:45:09.428Z,8.65
2018-09-06T13:49:49.358Z,9.38
2018-09-06T13:54:29.481Z,9.10
2018-09-06T13:59:10.073Z,7.97
2018-09-06T14:03:50.479Z,8.60
2018-09-06T14:08:31.689Z,8.48
2018-09-06T14:13:11.516Z,11.55
2018-09-06T14:17:51.550Z,14.58
2018-09-06T14:22:32.811Z,14.43
2018-09-06T14:27:13.385Z,15.72
2018-09-06T14:31:53.176Z,14.05
2018-09-06T14:36:34.212Z,12.33
2018-09-06T14:41:14.197Z,12.50
2018-09-06T14:45:53.957Z,12.98
2018-09-06T14:50:34.992Z,13.00
2018-09-06T14:55:14.937Z,14.13
2018-09-06T14:59:54.772Z,12.82
2018-09-06T15:04:35.065Z,14.90
2018-09-06T15:09:14.760Z,14.93
2018-09-06T15:13:55.910Z,15.55
2018-09-06T15:18:36.299Z,15.72
2018-09-06T15:23:18.004Z,16.17
2018-09-06T15:28:00.451Z,15.53
2018-09-06T15:32:40.590Z,17.85
2018-09-06T15:37:21.956Z,19.10
2018-09-06T15:42:02.520Z,19.23
2018-09-06T15:46:43.728Z,19.10
2018-09-06T15:51:25.164Z,19.95
2018-09-06T15:56:05.200Z,20.27
2018-09-06T16:00:46.528Z,20.80
2018-09-06T16:05:27.176Z,20.97
2018-09-06T16:10:08.270Z,20.08
2018-09-06T16:14:48.941Z,18.92
2018-09-06T16:19:31.429Z,19.62
2018-09-06T16:24:12.917Z,18.57
2018-09-06T16:28:53.214Z,18.10
2018-09-06T16:33:33.653Z,18.75
2018-09-06T16:38:13.744Z,20.60
2018-09-06T16:42:55.306Z,20.85
2018-09-06T16:47:37.513Z,21.07
2018-09-06T16:52:18.715Z,21.23
2018-09-06T16:56:58.691Z,21.12
2018-09-06T17:01:38.531Z,23.47
2018-09-06T17:06:18.892Z,23.95
2018-09-06T17:11:00.158Z,24.20
2018-09-06T17:15:43.376Z,24.87
2018-09-06T17:20:23.493Z,25.72
2018-09-06T17:25:03.720Z,27.30
2018-09-06T17:29:44.357Z,26.77
2018-09-06T17:34:24.984Z,25.43
2018-09-06T17:39:07.823Z,26.07
2018-09-06T17:43:49.000Z,25.20
2018-09-06T17:48:29.077Z,26.35
2018-09-06T17:53:09.101Z,28.60
2018-09-06T17:57:49.311Z,26.23
2018-09-06T18:02:29.506Z,25.52
2018-09-06T18:07:10.844Z,28.55
2018-09-06T18:11:51.460Z,28.42
2018-09-06T18:16:31.914Z,31.52
2018-09-06T18:21:11.697Z,31.33
2018-09-06T18:25:51.659Z,30.08
2018-09-06T18:30:32.309Z,29.25
2018-09-06T18:35:12.079Z,28.25
2018-09-06T18:39:52.596Z,28.50
2018-09-06T18:44:32.518Z,31.07
2018-09-06T18:49:12.589Z,29.00
2018-09-06T18:53:53.104Z,29.67
2018-09-06T18:58:34.279Z,30.05
2018-09-06T19:03:14.122Z,29.25
2018-09-06T19:07:54.080Z,27.52
2018-09-06T19:12:35.408Z,26.82
2018-09-06T19:17:15.071Z,28.10
2018-09-06T19:21:55.630Z,28.73
2018-09-06T19:26:35.596Z,27.40
2018-09-06T19:31:15.863Z,29.77
2018-09-06T19:35:55.834Z,30.43
2018-09-06T19:40:35.556Z,30.95
2018-09-06T19:45:15.403Z,29.82
2018-09-06T19:49:55.287Z,30.40
2018-09-06T19:54:35.196Z,29.60
2018-09-06T19:59:16.184Z,31.95
2018-09-06T20:03:56.069Z,30.77
2018-09-06T20:08:35.953Z,30.27
2018-09-06T20:13:16.740Z,29.25
2018-09-06T20:17:56.940Z,28.25
2018-09-06T20:22:38.189Z,28.55
2018-09-06T20:27:18.983Z,29.57
2018-09-06T20:32:00.393Z,30.85
2018-09-06T20:36:41.006Z,30.20
2018-09-06T20:41:21.509Z,29.67
2018-09-06T20:46:02.256Z,29.70
2018-09-06T20:50:44.234Z,31.93
2018-09-06T20:55:25.414Z,31.05
2018-09-06T21:00:05.746Z,29.92
2018-09-06T21:04:47.067Z,30.32
2018-09-06T21:09:28.061Z,31.10
2018-09-06T21:14:09.084Z,31.48
2018-09-06T21:18:50.091Z,30.75
2018-09-06T21:23:30.542Z,33.30
2018-09-06T21:28:10.752Z,33.35
2018-09-06T21:32:50.974Z,35.85
2018-09-06T21:37:30.867Z,36.28
2018-09-06T21:42:10.883Z,34.27
2018-09-06T21:46:51.835Z,36.68
2018-09-06T21:51:32.175Z,36.30
2018-09-06T21:56:12.300Z,36.80
2018-09-06T22:00:52.765Z,35.90
2018-09-06T22:05:32.883Z,35.25
2018-09-06T22:10:13.484Z,36.15
2018-09-06T22:14:53.205Z,36.08
2018-09-06T22:19:33.044Z,38.38
2018-09-06T22:24:13.920Z,39.27
2018-09-06T22:28:54.043Z,38.73
2018-09-06T22:33:34.919Z,38.60
2018-09-06T22:38:14.942Z,39.25
2018-09-06T22:42:54.800Z,35.52
2018-09-06T22:47:36.056Z,35.13
2018-09-06T22:52:16.296Z,38.30
2018-09-06T22:56:56.733Z,35.70
2018-09-06T23:01:37.500Z,36.28
2018-09-06T23:06:17.372Z,36.60
2018-09-06T23:10:57.767Z,38.45
2018-09-06T23:15:38.270Z,37.60
2018-09-06T23:20:19.145Z,39.10
2018-09-06T23:24:59.249Z,40.78
2018-09-06T23:29:40.452Z,39.75
2018-09-06T23:34:20.372Z,41.13
2018-09-06T23:39:00.432Z,43.10
2018-09-06T23:43:40.941Z,42.35
2018-09-06T23:48:23.686Z,42.13
2018-09-06T23:53:04.022Z,40.78
2018-09-06T23:57:43.872Z,39.42
